createdAt,value
2018-11-29T00:00:28.933Z,0.00
2018-11-29T00:01:28.788Z,0.00
2018-11-29T00:02:28.704Z,0.00
2018-11-29T00:03:28.621Z,0.00
2018-11-29T00:04:28.538Z,0.00
2018-11-29T00:05:28.457Z,0.00
2018-11-29T00:06:28.370Z,0.00
2018-11-29T00:07:28.287Z,0.00
2018-11-29T00:08:28.204Z,0.00
2018-11-29T00:09:28.118Z,0.00
2018-11-29T00:10:28.035Z,0.00
2018-11-29T00:11:27.954Z,0.00
2018-11-29T00:12:27.869Z,0.00
2018-11-29T00:13:27.784Z,0.00
2018-11-29T00:14:27.703Z,0.00
2018-11-29T00:15:27.618Z,0.00
2018-11-29T00:16:27.535Z,0.00
2018-11-29T00:17:27.450Z,0.00
2018-11-29T00:18:27.367Z,0.00
2018-11-29T00:19:27.285Z,0.00
2018-11-29T00:20:27.206Z,0.00
2018-11-29T00:21:27.117Z,0.00
2018-11-29T00:22:27.034Z,0.00
2018-11-29T00:23:26.950Z,0.00
2018-11-29T00:24:26.868Z,0.00
2018-11-29T00:25:26.784Z,0.00
2018-11-29T00:26:26.702Z,0.00
2018-11-29T00:27:26.618Z,0.00
2018-11-29T00:28:26.535Z,0.00
2018-11-29T00:29:26.450Z,0.00
2018-11-29T00:30:26.368Z,0.00
2018-11-29T00:31:26.284Z,0.00
2018-11-29T00:32:26.201Z,0.00
2018-11-29T00:33:26.117Z,0.00
2018-11-29T00:34:26.035Z,0.00
2018-11-29T00:35:25.953Z,0.00
2018-11-29T00:36:25.867Z,0.00
2018-11-29T00:37:25.783Z,0.00
2018-11-29T00:38:25.701Z,0.00
2018-11-29T00:39:25.619Z,0.00
2018-11-29T00:40:25.536Z,0.00
2018-11-29T00:41:25.452Z,0.00
2018-11-29T00:42:25.369Z,0.00
2018-11-29T00:43:25.291Z,0.00
2018-11-29T00:44:25.203Z,0.00
2018-11-29T00:45:25.119Z,0.00
2018-11-29T00:46:25.037Z,0.00
2018-11-29T00:47:24.954Z,0.00
2018-11-29T00:48:24.871Z,0.00
2018-11-29T00:49:24.787Z,0.00
2018-11-29T00:50:24.705Z,0.00
2018-11-29T00:51:24.622Z,0.00
2018-11-29T00:52:24.539Z,0.00
2018-11-29T00:53:24.454Z,0.00
2018-11-29T00:54:24.375Z,0.00
2018-11-29T00:55:24.290Z,0.00
2018-11-29T00:56:24.207Z,0.00
2018-11-29T00:57:24.125Z,0.00
2018-11-29T00:58:24.040Z,0.00
2018-11-29T00:59:23.957Z,0.00
2018-11-29T01:00:23.876Z,0.00
2018-11-29T01:01:23.792Z,0.00
2018-11-29T01:02:23.709Z,0.00
2018-11-29T01:03:23.626Z,0.00
2018-11-29T01:04:23.544Z,0.00
2018-11-29T01:05:23.460Z,0.00
2018-11-29T01:06:23.377Z,0.00
2018-11-29T01:07:23.295Z,0.00
2018-11-29T01:08:23.216Z,0.00
2018-11-29T01:09:23.128Z,0.00
2018-11-29T01:10:23.046Z,0.00
2018-11-29T01:11:22.964Z,0.00
2018-11-29T01:12:22.882Z,0.00
2018-11-29T01:13:22.797Z,0.00
2018-11-29T01:14:22.715Z,0.00
2018-11-29T01:15:22.632Z,0.00
2018-11-29T01:16:22.556Z,0.00
2018-11-29T01:17:22.465Z,0.00
2018-11-29T01:18:22.382Z,0.00
2018-11-29T01:19:22.301Z,0.00
2018-11-29T01:20:22.217Z,0.00
2018-11-29T01:21:22.134Z,0.00
2018-11-29T01:22:22.051Z,0.00
2018-11-29T01:23:21.967Z,0.00
2018-11-29T01:24:21.886Z,0.00
2018-11-29T01:25:21.801Z,0.00
2018-11-29T01:26:21.717Z,0.00
2018-11-29T01:27:21.633Z,0.00
2018-11-29T01:28:21.551Z,0.00
2018-11-29T01:29:21.467Z,0.00
2018-11-29T01:30:21.384Z,0.00
2018-11-29T01:31:21.302Z,0.00
2018-11-29T01:32:21.221Z,0.00
2018-11-29T01:33:21.135Z,0.00
2018-11-29T01:34:21.054Z,0.00
2018-11-29T01:35:20.968Z,0.00
2018-11-29T01:36:20.887Z,0.00
2018-11-29T01:37:20.805Z,0.00
2018-11-29T01:38:20.724Z,0.00
2018-11-29T01:39:20.638Z,0.00
2018-11-29T01:40:20.558Z,0.00
2018-11-29T01:41:20.471Z,0.00
2018-11-29T01:42:20.389Z,0.00
2018-11-29T01:43:20.308Z,0.00
2018-11-29T01:44:20.223Z,0.00
2018-11-29T01:45:20.145Z,0.00
2018-11-29T01:46:20.061Z,0.00
2018-11-29T01:47:19.975Z,0.00
2018-11-29T01:48:19.893Z,0.00
2018-11-29T01:49:19.810Z,0.00
2018-11-29T01:50:19.727Z,0.00
2018-11-29T01:51:19.647Z,0.00
2018-11-29T01:52:19.563Z,0.00
2018-11-29T01:53:19.481Z,0.00
2018-11-29T01:54:19.398Z,0.00
2018-11-29T01:55:19.315Z,0.00
2018-11-29T01:56:19.233Z,0.00
2018-11-29T01:57:19.199Z,0.00
2018-11-29T01:58:19.068Z,0.00
2018-11-29T01:59:18.985Z,0.00
2018-11-29T02:00:18.904Z,0.00
2018-11-29T02:01:18.856Z,0.00
2018-11-29T02:02:18.737Z,0.00
2018-11-29T02:03:18.655Z,0.00
2018-11-29T02:04:18.573Z,0.00
2018-11-29T02:05:18.490Z,0.00
2018-11-29T02:06:18.406Z,0.00
2018-11-29T02:07:18.575Z,0.00
2018-11-29T02:08:18.243Z,0.00
2018-11-29T02:09:18.165Z,0.00
2018-11-29T02:10:18.078Z,0.00
2018-11-29T02:11:17.995Z,0.00
2018-11-29T02:12:18.013Z,0.00
2018-11-29T02:13:17.830Z,0.00
2018-11-29T02:14:17.749Z,0.00
2018-11-29T02:15:17.666Z,0.00
2018-11-29T02:16:17.583Z,0.00
2018-11-29T02:17:17.600Z,0.00
2018-11-29T02:18:17.418Z,0.00
2018-11-29T02:19:17.336Z,0.00
2018-11-29T02:20:17.253Z,0.00
2018-11-29T02:21:17.170Z,0.00
2018-11-29T02:22:17.088Z,0.00
2018-11-29T02:23:17.008Z,0.00
2018-11-29T02:24:16.923Z,0.00
2018-11-29T02:25:16.840Z,0.00
2018-11-29T02:26:16.757Z,0.00
2018-11-29T02:27:16.677Z,0.00
2018-11-29T02:28:16.592Z,0.00
2018-11-29T02:29:16.511Z,0.00
2018-11-29T02:30:16.427Z,0.00
2018-11-29T02:31:16.343Z,0.00
2018-11-29T02:32:16.261Z,0.00
2018-11-29T02:33:16.280Z,0.00
2018-11-29T02:34:16.096Z,0.00
2018-11-29T02:35:16.013Z,0.00
2018-11-29T02:36:15.930Z,0.00
2018-11-29T02:37:15.847Z,0.00
2018-11-29T02:38:15.764Z,0.00
2018-11-29T02:39:15.681Z,0.00
2018-11-29T02:40:15.600Z,0.00
2018-11-29T02:41:15.516Z,0.00
2018-11-29T02:42:15.433Z,0.00
2018-11-29T02:43:15.349Z,0.00
2018-11-29T02:44:15.270Z,0.00
2018-11-29T02:45:15.185Z,0.00
2018-11-29T02:46:15.101Z,0.00
2018-11-29T02:47:15.018Z,0.00
2018-11-29T02:48:14.939Z,0.00
2018-11-29T02:49:14.902Z,0.00
2018-11-29T02:50:14.769Z,0.00
2018-11-29T02:51:14.693Z,0.00
2018-11-29T02:52:14.604Z,0.00
2018-11-29T02:53:14.520Z,0.00
2018-11-29T02:54:14.437Z,0.00
2018-11-29T02:55:14.358Z,0.00
2018-11-29T02:56:14.273Z,0.00
2018-11-29T02:57:14.188Z,0.00
2018-11-29T02:58:14.105Z,0.00
2018-11-29T02:59:14.025Z,0.00
2018-11-29T03:00:13.941Z,0.00
2018-11-29T03:01:13.858Z,0.00
2018-11-29T03:02:13.774Z,0.00
2018-11-29T03:03:13.693Z,0.00
2018-11-29T03:04:13.610Z,0.00
2018-11-29T03:05:13.526Z,0.00
2018-11-29T03:06:13.443Z,0.00
2018-11-29T03:07:13.362Z,0.00
2018-11-29T03:08:13.281Z,0.00
2018-11-29T03:09:13.197Z,0.00
2018-11-29T03:10:13.113Z,0.00
2018-11-29T03:11:13.031Z,0.00
2018-11-29T03:12:12.948Z,0.00
2018-11-29T03:13:12.870Z,0.00
2018-11-29T03:14:12.783Z,0.00
2018-11-29T03:15:12.704Z,0.00
2018-11-29T03:16:12.686Z,0.00
2018-11-29T03:17:12.535Z,0.00
2018-11-29T03:18:12.452Z,0.00
2018-11-29T03:19:12.369Z,0.00
2018-11-29T03:20:12.288Z,0.00
2018-11-29T03:21:12.206Z,0.00
2018-11-29T03:22:12.121Z,0.00
2018-11-29T03:23:12.038Z,0.00
2018-11-29T03:24:11.956Z,0.00
2018-11-29T03:25:11.872Z,0.00
2018-11-29T03:26:11.790Z,0.00
2018-11-29T03:27:11.708Z,0.00
2018-11-29T03:28:11.625Z,0.00
2018-11-29T03:29:11.541Z,0.00
2018-11-29T03:30:11.461Z,0.00
2018-11-29T03:31:11.377Z,0.00
2018-11-29T03:32:11.294Z,0.00
2018-11-29T03:33:11.209Z,0.00
2018-11-29T03:34:11.127Z,0.00
2018-11-29T03:35:11.044Z,0.00
2018-11-29T03:36:10.962Z,0.00
2018-11-29T03:37:10.880Z,0.00
2018-11-29T03:38:10.795Z,0.00
2018-11-29T03:39:10.712Z,0.00
2018-11-29T03:40:10.630Z,0.00
2018-11-29T03:41:10.548Z,0.00
2018-11-29T03:42:10.464Z,0.00
2018-11-29T03:43:10.383Z,0.00
2018-11-29T03:44:10.299Z,0.00
2018-11-29T03:45:10.215Z,0.00
2018-11-29T03:46:10.136Z,0.00
2018-11-29T03:47:10.052Z,0.00
2018-11-29T03:48:10.069Z,0.00
2018-11-29T03:49:09.886Z,0.00
2018-11-29T03:50:09.803Z,0.00
2018-11-29T03:51:09.721Z,0.00
2018-11-29T03:52:09.638Z,0.00
2018-11-29T03:53:09.607Z,0.00
2018-11-29T03:54:09.473Z,0.00
2018-11-29T03:55:09.389Z,0.00
2018-11-29T03:56:09.310Z,0.00
2018-11-29T03:57:09.225Z,0.00
2018-11-29T03:58:09.146Z,0.00
2018-11-29T03:59:09.062Z,0.00
2018-11-29T04:00:08.979Z,0.00
2018-11-29T04:01:08.895Z,0.00
2018-11-29T04:02:08.815Z,0.00
2018-11-29T04:03:08.732Z,0.00
2018-11-29T04:04:08.650Z,0.00
2018-11-29T04:05:08.567Z,0.00
2018-11-29T04:06:08.484Z,0.00
2018-11-29T04:07:08.403Z,0.00
2018-11-29T04:08:08.321Z,0.00
2018-11-29T04:09:08.237Z,0.00
2018-11-29T04:10:08.406Z,0.00
2018-11-29T04:11:08.899Z,0.00
2018-11-29T04:12:07.990Z,0.00
2018-11-29T04:13:07.908Z,0.00
2018-11-29T04:14:07.826Z,0.00
2018-11-29T04:15:07.744Z,0.00
2018-11-29T04:16:07.670Z,0.00
2018-11-29T04:17:07.579Z,0.00
2018-11-29T04:18:07.497Z,0.00
2018-11-29T04:19:07.414Z,0.00
2018-11-29T04:20:07.580Z,0.00
2018-11-29T04:21:07.249Z,0.00
2018-11-29T04:22:07.172Z,0.00
2018-11-29T04:23:07.083Z,0.00
2018-11-29T04:24:07.004Z,0.00
2018-11-29T04:25:06.969Z,0.00
2018-11-29T04:26:06.834Z,0.00
2018-11-29T04:27:06.752Z,0.00
2018-11-29T04:28:06.669Z,0.00
2018-11-29T04:29:06.586Z,0.00
2018-11-29T04:30:06.514Z,0.00
2018-11-29T04:31:06.422Z,0.00
2018-11-29T04:32:06.339Z,0.00
2018-11-29T04:33:06.258Z,0.00
2018-11-29T04:34:06.173Z,0.00
2018-11-29T04:35:06.091Z,0.00
2018-11-29T04:36:06.008Z,0.00
2018-11-29T04:37:05.928Z,0.00
2018-11-29T04:38:05.842Z,0.00
2018-11-29T04:39:05.759Z,0.00
2018-11-29T04:40:05.778Z,0.00
2018-11-29T04:41:05.594Z,0.00
2018-11-29T04:42:05.517Z,0.00
2018-11-29T04:43:05.428Z,0.00
2018-11-29T04:44:05.346Z,0.00
2018-11-29T04:45:05.262Z,0.00
2018-11-29T04:46:05.178Z,0.00
2018-11-29T04:47:05.096Z,0.00
2018-11-29T04:48:09.972Z,0.00
2018-11-29T04:49:04.929Z,0.00
2018-11-29T04:50:04.846Z,0.00
2018-11-29T04:51:04.764Z,0.00
2018-11-29T04:52:04.681Z,0.00
2018-11-29T04:53:04.598Z,0.00
2018-11-29T04:54:04.514Z,0.00
2018-11-29T04:55:04.441Z,0.00
2018-11-29T04:56:04.352Z,0.00
2018-11-29T04:57:04.263Z,0.00
2018-11-29T04:58:04.185Z,0.00
2018-11-29T04:59:04.100Z,0.00
2018-11-29T05:00:04.035Z,0.00
2018-11-29T05:01:03.930Z,0.00
2018-11-29T05:02:03.849Z,0.00
2018-11-29T05:03:03.770Z,0.00
2018-11-29T05:04:03.684Z,0.00
2018-11-29T05:05:03.599Z,0.00
2018-11-29T05:06:03.514Z,0.00
2018-11-29T05:07:03.430Z,0.00
2018-11-29T05:08:03.347Z,0.00
2018-11-29T05:09:03.262Z,0.00
2018-11-29T05:10:03.179Z,0.00
2018-11-29T05:11:03.100Z,0.00
2018-11-29T05:12:03.012Z,0.00
2018-11-29T05:13:02.928Z,0.00
2018-11-29T05:14:02.845Z,0.00
2018-11-29T05:15:02.762Z,0.00
2018-11-29T05:16:02.682Z,0.00
2018-11-29T05:17:02.593Z,0.00
2018-11-29T05:18:02.511Z,0.00
2018-11-29T05:19:02.432Z,0.00
2018-11-29T05:20:02.345Z,0.00
2018-11-29T05:21:02.263Z,0.00
2018-11-29T05:22:02.178Z,0.00
2018-11-29T05:23:02.095Z,0.00
2018-11-29T05:24:02.015Z,0.00
2018-11-29T05:25:01.929Z,0.00
2018-11-29T05:26:01.848Z,0.00
2018-11-29T05:27:01.761Z,0.00
2018-11-29T05:28:01.677Z,0.00
2018-11-29T05:29:01.593Z,0.00
2018-11-29T05:30:01.511Z,0.00
2018-11-29T05:31:01.427Z,0.00
2018-11-29T05:32:01.350Z,0.00
2018-11-29T05:33:01.259Z,0.00
2018-11-29T05:34:01.176Z,0.00
2018-11-29T05:35:01.095Z,0.00
2018-11-29T05:36:01.010Z,0.00
2018-11-29T05:37:00.925Z,0.00
2018-11-29T05:38:00.842Z,0.00
2018-11-29T05:39:00.764Z,0.00
2018-11-29T05:40:00.675Z,0.00
2018-11-29T05:41:00.591Z,0.00
2018-11-29T05:42:00.509Z,0.00
2018-11-29T05:43:00.424Z,0.00
2018-11-29T05:44:00.341Z,0.00
2018-11-29T05:45:00.257Z,0.00
2018-11-29T05:46:00.175Z,0.00
2018-11-29T05:47:00.091Z,0.00
2018-11-29T05:48:00.009Z,0.00
2018-11-29T05:48:59.925Z,0.00
2018-11-29T05:49:59.840Z,0.00
2018-11-29T05:50:59.758Z,0.00
2018-11-29T05:51:59.673Z,0.00
2018-11-29T05:52:59.590Z,0.00
2018-11-29T05:53:59.508Z,0.00
2018-11-29T05:54:59.423Z,0.00
2018-11-29T05:55:59.341Z,0.00
2018-11-29T05:56:59.256Z,0.00
2018-11-29T05:57:59.173Z,0.00
2018-11-29T05:58:59.091Z,0.00
2018-11-29T05:59:59.007Z,0.00
2018-11-29T06:00:58.922Z,0.00
2018-11-29T06:01:58.838Z,0.00
2018-11-29T06:02:58.759Z,0.00
2018-11-29T06:03:58.672Z,0.00
2018-11-29T06:04:58.588Z,0.00
2018-11-29T06:05:58.505Z,0.00
2018-11-29T06:06:58.521Z,0.00
2018-11-29T06:07:58.339Z,0.00
2018-11-29T06:08:58.254Z,0.00
2018-11-29T06:09:58.171Z,0.00
2018-11-29T06:10:58.088Z,0.00
2018-11-29T06:11:58.008Z,0.00
2018-11-29T06:12:57.920Z,0.00
2018-11-29T06:13:57.839Z,0.00
2018-11-29T06:14:57.754Z,0.00
2018-11-29T06:15:57.671Z,0.00
2018-11-29T06:16:57.588Z,0.00
2018-11-29T06:17:57.503Z,0.00
2018-11-29T06:18:57.421Z,0.00
2018-11-29T06:19:57.338Z,0.00
2018-11-29T06:20:57.255Z,0.00
2018-11-29T06:21:57.170Z,0.00
2018-11-29T06:22:57.088Z,0.00
2018-11-29T06:23:57.005Z,4.00
2018-11-29T06:24:56.922Z,4.00
2018-11-29T06:25:56.839Z,0.00
2018-11-29T06:26:56.755Z,0.00
2018-11-29T06:27:56.673Z,4.00
2018-11-29T06:28:56.588Z,4.00
2018-11-29T06:29:56.505Z,0.00
2018-11-29T06:30:56.421Z,4.00
2018-11-29T06:31:56.340Z,4.00
2018-11-29T06:32:56.255Z,4.00
2018-11-29T06:33:56.171Z,8.00
2018-11-29T06:34:56.088Z,4.00
2018-11-29T06:35:56.005Z,8.00
2018-11-29T06:36:55.921Z,8.00
2018-11-29T06:37:55.838Z,12.00
2018-11-29T06:38:55.755Z,12.00
2018-11-29T06:39:55.672Z,16.00
2018-11-29T06:40:55.588Z,16.00
2018-11-29T06:41:55.504Z,20.00
2018-11-29T06:42:55.422Z,24.00
2018-11-29T06:43:55.342Z,28.00
2018-11-29T06:44:55.254Z,32.00
2018-11-29T06:45:55.173Z,36.00
2018-11-29T06:46:55.089Z,44.00
2018-11-29T06:47:55.005Z,48.00
2018-11-29T06:48:54.925Z,52.00
2018-11-29T06:49:54.839Z,60.00
2018-11-29T06:50:54.756Z,64.00
2018-11-29T06:51:54.674Z,72.00
2018-11-29T06:52:54.589Z,76.00
2018-11-29T06:53:54.506Z,84.00
2018-11-29T06:54:54.424Z,92.00
2018-11-29T06:55:54.340Z,104.00
2018-11-29T06:56:54.258Z,112.00
2018-11-29T06:57:54.175Z,124.00
2018-11-29T06:58:54.091Z,140.00
2018-11-29T06:59:54.012Z,152.00
2018-11-29T07:00:53.925Z,164.00
2018-11-29T07:01:53.842Z,188.00
2018-11-29T07:02:53.758Z,212.00
2018-11-29T07:03:53.677Z,236.00
2018-11-29T07:04:53.593Z,252.00
2018-11-29T07:05:53.510Z,256.00
2018-11-29T07:06:53.426Z,264.00
2018-11-29T07:07:53.351Z,280.00
2018-11-29T07:08:53.262Z,292.00
2018-11-29T07:09:53.177Z,304.00
2018-11-29T07:10:53.095Z,316.00
2018-11-29T07:11:53.012Z,324.00
2018-11-29T07:12:52.927Z,336.00
2018-11-29T07:13:52.848Z,344.00
2018-11-29T07:14:52.763Z,356.00
2018-11-29T07:15:52.682Z,368.00
2018-11-29T07:16:52.596Z,376.00
2018-11-29T07:17:52.513Z,392.00
2018-11-29T07:18:52.431Z,408.00
2018-11-29T07:19:52.447Z,420.00
2018-11-29T07:20:52.263Z,432.00
2018-11-29T07:21:52.184Z,444.00
2018-11-29T07:22:52.098Z,456.00
2018-11-29T07:23:52.016Z,472.00
2018-11-29T07:24:51.931Z,488.00
2018-11-29T07:25:51.848Z,504.00
2018-11-29T07:26:51.766Z,520.00
2018-11-29T07:27:51.683Z,536.00
2018-11-29T07:28:51.599Z,548.00
2018-11-29T07:29:51.517Z,568.00
2018-11-29T07:30:51.434Z,584.00
2018-11-29T07:31:51.351Z,600.00
2018-11-29T07:32:51.268Z,620.00
2018-11-29T07:33:51.185Z,636.00
2018-11-29T07:34:51.103Z,652.00
2018-11-29T07:35:51.018Z,668.00
2018-11-29T07:36:50.935Z,680.00
2018-11-29T07:37:50.852Z,700.00
2018-11-29T07:38:50.776Z,720.00
2018-11-29T07:39:50.688Z,736.00
2018-11-29T07:40:50.604Z,756.00
2018-11-29T07:41:50.520Z,772.00
2018-11-29T07:42:50.437Z,788.00
2018-11-29T07:43:50.355Z,804.00
2018-11-29T07:44:50.270Z,828.00
2018-11-29T07:45:50.187Z,848.00
2018-11-29T07:46:50.105Z,872.00
2018-11-29T07:47:50.021Z,888.00
2018-11-29T07:48:49.939Z,908.00
2018-11-29T07:49:49.855Z,928.00
2018-11-29T07:50:49.773Z,948.00
2018-11-29T07:51:49.690Z,968.00
2018-11-29T07:52:49.608Z,976.00
2018-11-29T07:53:49.524Z,972.00
2018-11-29T07:54:49.444Z,972.00
2018-11-29T07:55:49.358Z,976.00
2018-11-29T07:56:49.276Z,984.00
2018-11-29T07:57:49.195Z,992.00
2018-11-29T07:58:51.559Z,1008.00
2018-11-29T07:59:49.029Z,1028.00
2018-11-29T08:00:48.945Z,1052.00
2018-11-29T08:01:48.863Z,1076.00
2018-11-29T08:02:48.781Z,1104.00
2018-11-29T08:03:48.699Z,1136.00
2018-11-29T08:04:48.615Z,1172.00
2018-11-29T08:05:48.532Z,1220.00
2018-11-29T08:06:48.451Z,1276.00
2018-11-29T08:07:48.370Z,1336.00
2018-11-29T08:08:48.286Z,1404.00
2018-11-29T08:09:48.202Z,1484.00
2018-11-29T08:10:48.120Z,1556.00
2018-11-29T08:11:48.038Z,1624.00
2018-11-29T08:12:47.957Z,1700.00
2018-11-29T08:13:47.874Z,1764.00
2018-11-29T08:14:47.792Z,1820.00
2018-11-29T08:15:47.710Z,1860.00
2018-11-29T08:16:47.626Z,1884.00
2018-11-29T08:17:47.545Z,1896.00
2018-11-29T08:18:47.462Z,1896.00
2018-11-29T08:19:47.381Z,1892.00
2018-11-29T08:20:47.298Z,1892.00
2018-11-29T08:21:47.216Z,1888.00
2018-11-29T08:22:47.133Z,1888.00
2018-11-29T08:23:47.051Z,1888.00
2018-11-29T08:24:46.969Z,1884.00
2018-11-29T08:25:46.887Z,1888.00
2018-11-29T08:26:46.804Z,1888.00
2018-11-29T08:27:46.723Z,1900.00
2018-11-29T08:28:46.639Z,1912.00
2018-11-29T08:29:46.558Z,1912.00
2018-11-29T08:30:46.475Z,1924.00
2018-11-29T08:31:46.394Z,1940.00
2018-11-29T08:32:46.311Z,1952.00
2018-11-29T08:33:46.230Z,1964.00
2018-11-29T08:34:46.149Z,1976.00
2018-11-29T08:35:46.066Z,1992.00
2018-11-29T08:36:45.983Z,2000.00
2018-11-29T08:37:45.902Z,2000.00
2018-11-29T08:38:45.820Z,1988.00
2018-11-29T08:39:45.739Z,1960.00
2018-11-29T08:40:45.656Z,1944.00
2018-11-29T08:41:45.576Z,1928.00
2018-11-29T08:42:45.493Z,1928.00
2018-11-29T08:43:45.669Z,1940.00
2018-11-29T08:44:45.330Z,1972.00
2018-11-29T08:45:45.247Z,2008.00
2018-11-29T08:46:45.168Z,2056.00
2018-11-29T08:47:45.087Z,2116.00
2018-11-29T08:48:45.000Z,2188.00
2018-11-29T08:49:44.919Z,2260.00
2018-11-29T08:50:44.838Z,2340.00
2018-11-29T08:51:44.756Z,2404.00
2018-11-29T08:52:44.674Z,2464.00
2018-11-29T08:53:44.595Z,2492.00
2018-11-29T08:54:44.511Z,2516.00
2018-11-29T08:55:44.431Z,2564.00
2018-11-29T08:56:44.348Z,2652.00
2018-11-29T08:57:44.265Z,2736.00
2018-11-29T08:58:44.183Z,2816.00
2018-11-29T08:59:44.103Z,2884.00
2018-11-29T09:00:44.020Z,2936.00
2018-11-29T09:01:43.940Z,3004.00
2018-11-29T09:02:43.856Z,3144.00
2018-11-29T09:03:43.775Z,3328.00
2018-11-29T09:04:43.692Z,3504.00
2018-11-29T09:05:43.611Z,3636.00
2018-11-29T09:06:43.530Z,3688.00
2018-11-29T09:07:43.448Z,3700.00
2018-11-29T09:08:43.366Z,3724.00
2018-11-29T09:09:43.286Z,3724.00
2018-11-29T09:10:43.205Z,3692.00
2018-11-29T09:11:43.123Z,3700.00
2018-11-29T09:12:43.040Z,3676.00
2018-11-29T09:13:42.959Z,3676.00
2018-11-29T09:14:42.878Z,3688.00
2018-11-29T09:15:42.810Z,3676.00
2018-11-29T09:16:42.714Z,3656.00
2018-11-29T09:17:42.636Z,3628.00
2018-11-29T09:18:42.554Z,3580.00
2018-11-29T09:19:42.472Z,3520.00
2018-11-29T09:20:42.390Z,3468.00
2018-11-29T09:21:42.310Z,3424.00
2018-11-29T09:22:42.229Z,3368.00
2018-11-29T09:23:42.151Z,3392.00
2018-11-29T09:24:42.067Z,3264.00
2018-11-29T09:25:41.985Z,3264.00
2018-11-29T09:26:41.904Z,3380.00
2018-11-29T09:27:41.822Z,3428.00
2018-11-29T09:28:41.740Z,3452.00
2018-11-29T09:29:41.660Z,3432.00
2018-11-29T09:30:41.579Z,3432.00
2018-11-29T09:31:41.500Z,3476.00
2018-11-29T09:32:41.415Z,3548.00
2018-11-29T09:33:41.333Z,3692.00
2018-11-29T09:34:41.252Z,3652.00
2018-11-29T09:35:41.171Z,3780.00
2018-11-29T09:36:41.092Z,3800.00
2018-11-29T09:37:41.080Z,3924.00
2018-11-29T09:38:40.926Z,4148.00
2018-11-29T09:39:40.845Z,4452.00
2018-11-29T09:40:40.762Z,4596.00
2018-11-29T09:41:40.681Z,4400.00
2018-11-29T09:42:40.600Z,4616.00
2018-11-29T09:43:40.518Z,5108.00
2018-11-29T09:44:40.436Z,4592.00
2018-11-29T09:45:40.355Z,4648.00
2018-11-29T09:46:40.273Z,4328.00
2018-11-29T09:47:40.194Z,4204.00
2018-11-29T09:48:40.111Z,4140.00
2018-11-29T09:49:40.031Z,4100.00
2018-11-29T09:50:39.949Z,4068.00
2018-11-29T09:51:39.867Z,4040.00
2018-11-29T09:52:39.791Z,4032.00
2018-11-29T09:53:39.704Z,4052.00
2018-11-29T09:54:39.623Z,4076.00
2018-11-29T09:55:39.592Z,4136.00
2018-11-29T09:56:39.461Z,4188.00
2018-11-29T09:57:39.379Z,4248.00
2018-11-29T09:58:39.299Z,4296.00
2018-11-29T09:59:39.218Z,4348.00
2018-11-29T10:00:39.235Z,4408.00
2018-11-29T10:01:39.052Z,4472.00
2018-11-29T10:02:38.974Z,4484.00
2018-11-29T10:03:38.892Z,4492.00
2018-11-29T10:04:38.814Z,4524.00
2018-11-29T10:05:38.732Z,4492.00
2018-11-29T10:06:38.649Z,4404.00
2018-11-29T10:07:38.569Z,4284.00
2018-11-29T10:08:38.485Z,4204.00
2018-11-29T10:09:38.404Z,4184.00
2018-11-29T10:10:38.323Z,4212.00
2018-11-29T10:11:38.241Z,4240.00
2018-11-29T10:12:38.161Z,4272.00
2018-11-29T10:13:38.079Z,4304.00
2018-11-29T10:14:37.997Z,4380.00
2018-11-29T10:15:37.918Z,4476.00
2018-11-29T10:16:37.833Z,4588.00
2018-11-29T10:17:37.752Z,4716.00
2018-11-29T10:18:37.671Z,4904.00
2018-11-29T10:19:37.592Z,5152.00
2018-11-29T10:20:37.508Z,5360.00
2018-11-29T10:21:37.526Z,5404.00
2018-11-29T10:22:37.346Z,5360.00
2018-11-29T10:23:37.276Z,5308.00
2018-11-29T10:24:37.182Z,5308.00
2018-11-29T10:25:37.102Z,5344.00
2018-11-29T10:26:37.026Z,5360.00
2018-11-29T10:27:36.940Z,5340.00
2018-11-29T10:28:36.857Z,5284.00
2018-11-29T10:29:36.778Z,5212.00
2018-11-29T10:30:36.697Z,5148.00
2018-11-29T10:31:36.617Z,5084.00
2018-11-29T10:32:36.536Z,5008.00
2018-11-29T10:33:36.461Z,4928.00
2018-11-29T10:34:36.374Z,4832.00
2018-11-29T10:35:36.294Z,4756.00
2018-11-29T10:36:36.212Z,4712.00
2018-11-29T10:37:36.137Z,4696.00
2018-11-29T10:38:36.052Z,4680.00
2018-11-29T10:39:35.972Z,4676.00
2018-11-29T10:40:35.893Z,4680.00
2018-11-29T10:41:35.809Z,4676.00
2018-11-29T10:42:35.729Z,4684.00
2018-11-29T10:43:35.648Z,4692.00
2018-11-29T10:44:35.567Z,4704.00
2018-11-29T10:45:35.487Z,4692.00
2018-11-29T10:46:35.407Z,4684.00
2018-11-29T10:47:35.328Z,4716.00
2018-11-29T10:48:35.246Z,4812.00
2018-11-29T10:49:35.165Z,4924.00
2018-11-29T10:50:35.086Z,5064.00
2018-11-29T10:51:35.006Z,5216.00
2018-11-29T10:52:34.925Z,5328.00
2018-11-29T10:53:37.692Z,5364.00
2018-11-29T10:54:34.765Z,5356.00
2018-11-29T10:55:34.685Z,5360.00
2018-11-29T10:56:34.604Z,5372.00
2018-11-29T10:57:34.524Z,5412.00
2018-11-29T10:58:34.444Z,5468.00
2018-11-29T10:59:34.365Z,5512.00
2018-11-29T11:00:34.283Z,5532.00
2018-11-29T11:01:34.205Z,5560.00
2018-11-29T11:02:34.124Z,5584.00
2018-11-29T11:03:34.044Z,5544.00
2018-11-29T11:04:33.965Z,5392.00
2018-11-29T11:05:33.885Z,5084.00
2018-11-29T11:06:33.805Z,4744.00
2018-11-29T11:07:33.726Z,4440.00
2018-11-29T11:08:33.646Z,4200.00
2018-11-29T11:09:33.566Z,4048.00
2018-11-29T11:10:33.485Z,3952.00
2018-11-29T11:11:33.407Z,3864.00
2018-11-29T11:12:33.327Z,3748.00
2018-11-29T11:13:33.246Z,3604.00
2018-11-29T11:14:33.168Z,3472.00
2018-11-29T11:15:33.088Z,3376.00
2018-11-29T11:16:33.008Z,3292.00
2018-11-29T11:17:32.929Z,3176.00
2018-11-29T11:18:32.849Z,3048.00
2018-11-29T11:19:32.774Z,2940.00
2018-11-29T11:20:32.688Z,2876.00
2018-11-29T11:21:32.610Z,2852.00
2018-11-29T11:22:32.531Z,2868.00
2018-11-29T11:23:32.458Z,2932.00
2018-11-29T11:24:32.373Z,3020.00
2018-11-29T11:25:32.292Z,3128.00
2018-11-29T11:26:32.214Z,3232.00
2018-11-29T11:27:32.133Z,3316.00
2018-11-29T11:28:32.053Z,3344.00
2018-11-29T11:29:31.973Z,3308.00
2018-11-29T11:30:31.895Z,3292.00
2018-11-29T11:31:31.815Z,3296.00
2018-11-29T11:32:31.736Z,3304.00
2018-11-29T11:33:31.656Z,3304.00
2018-11-29T11:34:31.575Z,3328.00
2018-11-29T11:35:31.496Z,3380.00
2018-11-29T11:36:31.418Z,3452.00
2018-11-29T11:37:31.336Z,3504.00
2018-11-29T11:38:31.257Z,3580.00
2018-11-29T11:39:31.176Z,3700.00
2018-11-29T11:40:31.099Z,3860.00
2018-11-29T11:41:31.016Z,4060.00
2018-11-29T11:42:30.938Z,4208.00
2018-11-29T11:43:30.859Z,4252.00
2018-11-29T11:44:30.778Z,4148.00
2018-11-29T11:45:30.698Z,3976.00
2018-11-29T11:46:30.669Z,3796.00
2018-11-29T11:47:31.243Z,3612.00
2018-11-29T11:48:30.458Z,3464.00
2018-11-29T11:49:30.379Z,3352.00
2018-11-29T11:50:30.299Z,3260.00
2018-11-29T11:51:30.471Z,3188.00
2018-11-29T11:52:30.142Z,3136.00
2018-11-29T11:53:30.060Z,3096.00
2018-11-29T11:54:29.981Z,3048.00
2018-11-29T11:55:30.494Z,3000.00
2018-11-29T11:56:29.821Z,2948.00
2018-11-29T11:57:29.740Z,2888.00
2018-11-29T11:58:29.660Z,2808.00
2018-11-29T11:59:29.581Z,2716.00
2018-11-29T12:00:29.500Z,2616.00
2018-11-29T12:01:29.422Z,2524.00
2018-11-29T12:02:29.341Z,2468.00
2018-11-29T12:03:29.261Z,2424.00
2018-11-29T12:04:29.180Z,2388.00
2018-11-29T12:05:29.101Z,2364.00
2018-11-29T12:06:29.021Z,2356.00
2018-11-29T12:07:28.941Z,2372.00
2018-11-29T12:08:28.861Z,2404.00
2018-11-29T12:09:28.780Z,2436.00
2018-11-29T12:10:28.703Z,2472.00
2018-11-29T12:11:28.621Z,2532.00
2018-11-29T12:12:28.540Z,2620.00
2018-11-29T12:13:28.462Z,2732.00
2018-11-29T12:14:28.381Z,2864.00
2018-11-29T12:15:28.300Z,3028.00
2018-11-29T12:16:28.219Z,3204.00
2018-11-29T12:17:28.140Z,3392.00
2018-11-29T12:18:28.060Z,3552.00
2018-11-29T12:19:27.981Z,3700.00
2018-11-29T12:20:27.900Z,3836.00
2018-11-29T12:21:27.820Z,3932.00
2018-11-29T12:22:27.741Z,4016.00
2018-11-29T12:23:27.662Z,4076.00
2018-11-29T12:24:27.582Z,4120.00
2018-11-29T12:25:27.498Z,4172.00
2018-11-29T12:26:27.423Z,4216.00
2018-11-29T12:27:27.339Z,4244.00
2018-11-29T12:28:27.259Z,4256.00
2018-11-29T12:29:27.182Z,4256.00
2018-11-29T12:30:27.099Z,4240.00
2018-11-29T12:31:27.022Z,4196.00
2018-11-29T12:32:26.939Z,4132.00
2018-11-29T12:33:26.860Z,4048.00
2018-11-29T12:34:26.782Z,3980.00
2018-11-29T12:35:26.701Z,3932.00
2018-11-29T12:36:26.621Z,3908.00
2018-11-29T12:37:26.595Z,3888.00
2018-11-29T12:39:26.385Z,3720.00
2018-11-29T12:40:26.301Z,3600.00
2018-11-29T12:41:26.222Z,3468.00
2018-11-29T12:42:26.142Z,3316.00
2018-11-29T12:43:26.065Z,3160.00
2018-11-29T12:44:25.983Z,3040.00